Time;durP1;ratioP1;P1;durP2;ratioP2;P2;SDS_P1;SDS_P2;PMS_P1;PMS_P2;Temp;Humidity;BMP_temperature;BMP_pressure;BME280_temperature;BME280_humidity;BME280_pressure;Samples;Min_cycle;Max_cycle;Signal;HPM_P1;HPM_P2
2022/03/25 00:01:41;;;;;;;10.73;8.73;;;8.70;57.30;;;;;;5126384;28;20169;-85
2022/03/25 00:04:08;;;;;;;11.53;8.77;;;8.70;57.40;;;;;;5127943;28;20200;-87
2022/03/25 00:06:34;;;;;;;14.87;9.00;;;8.60;57.50;;;;;;5118951;28;20171;-85
2022/03/25 00:09:00;;;;;;;9.33;8.43;;;8.50;57.70;;;;;;5121783;28;20168;-85
2022/03/25 00:11:26;;;;;;;9.37;8.43;;;8.50;57.90;;;;;;5117245;28;20264;-87
2022/03/25 00:13:52;;;;;;;9.27;8.27;;;8.40;57.90;;;;;;5117661;28;20181;-87
2022/03/25 00:16:18;;;;;;;8.60;7.70;;;8.40;57.80;;;;;;5116945;28;20208;-87
2022/03/25 00:18:44;;;;;;;8.87;7.97;;;8.40;57.80;;;;;;5116988;28;20636;-86
2022/03/25 00:21:10;;;;;;;10.70;7.70;;;8.40;58.00;;;;;;5098574;28;20330;-83
2022/03/25 00:23:36;;;;;;;12.87;8.47;;;8.40;58.00;;;;;;5117330;28;20181;-88
2022/03/25 00:26:02;;;;;;;10.23;7.90;;;8.40;57.80;;;;;;5098513;28;20189;-87
2022/03/25 00:28:28;;;;;;;8.27;7.03;;;8.40;57.80;;;;;;5116872;28;20570;-84
2022/03/25 00:30:54;;;;;;;10.80;7.30;;;8.40;57.90;;;;;;5116728;28;20178;-86
2022/03/25 00:33:20;;;;;;;9.60;7.43;;;8.40;57.90;;;;;;5116721;28;20205;-86
2022/03/25 00:35:46;;;;;;;8.10;7.23;;;8.40;57.70;;;;;;5116580;28;20752;-85
2022/03/25 00:38:12;;;;;;;9.00;6.83;;;8.40;57.70;;;;;;5116588;28;20260;-84
2022/03/25 00:40:38;;;;;;;13.70;7.80;;;8.40;57.70;;;;;;5116655;28;20205;-85
2022/03/25 00:43:06;;;;;;;10.70;7.67;;;8.30;58.10;;;;;;5116560;28;20226;-84
2022/03/25 00:45:33;;;;;;;8.70;7.00;;;8.30;58.10;;;;;;5116420;28;20183;-84
2022/03/25 00:47:59;;;;;;;9.50;6.93;;;8.30;57.90;;;;;;5097994;28;20614;-85
2022/03/25 00:50:26;;;;;;;8.00;7.13;;;8.40;57.70;;;;;;5098089;28;20279;-84
2022/03/25 00:52:51;;;;;;;12.03;7.67;;;8.40;57.80;;;;;;5124318;28;20574;-82
2022/03/25 00:55:18;;;;;;;8.40;7.17;;;8.40;57.90;;;;;;5125189;28;20711;-84
2022/03/25 00:57:44;;;;;;;9.13;7.57;;;8.40;57.90;;;;;;5122972;28;20200;-84
2022/03/25 01:00:10;;;;;;;9.30;7.53;;;8.40;58.00;;;;;;5117626;28;20168;-83
2022/03/25 01:02:36;;;;;;;7.90;7.10;;;8.30;58.10;;;;;;5116644;28;20172;-83
2022/03/25 01:05:02;;;;;;;9.47;7.03;;;8.20;58.30;;;;;;5116118;28;20165;-83
2022/03/25 01:07:28;;;;;;;9.47;7.27;;;8.20;58.40;;;;;;5116455;28;20180;-84
2022/03/25 01:09:54;;;;;;;7.87;7.17;;;8.20;58.50;;;;;;5097632;28;20177;-84
2022/03/25 01:12:21;;;;;;;8.80;6.93;;;8.20;58.30;;;;;;5097805;28;20706;-83
2022/03/25 01:14:48;;;;;;;10.77;7.20;;;8.10;58.30;;;;;;5115848;28;20231;-86
2022/03/25 01:17:14;;;;;;;9.17;7.27;;;8.10;58.50;;;;;;5115870;28;20169;-84
2022/03/25 01:19:41;;;;;;;10.20;7.50;;;8.20;58.40;;;;;;5115874;28;20179;-84
2022/03/25 01:22:07;;;;;;;8.40;7.57;;;8.20;58.50;;;;;;5115922;28;20171;-85
2022/03/25 01:24:33;;;;;;;10.13;7.40;;;8.10;58.50;;;;;;5115819;28;20176;-84
2022/03/25 01:27:00;;;;;;;8.17;7.00;;;8.00;58.80;;;;;;5115913;28;20228;-88
2022/03/25 01:29:26;;;;;;;7.90;7.10;;;8.00;58.90;;;;;;5115739;28;20717;-86
2022/03/25 01:31:53;;;;;;;8.33;7.43;;;7.90;59.20;;;;;;5116808;28;20296;-87
2022/03/25 01:34:20;;;;;;;7.93;7.00;;;7.80;59.20;;;;;;5116013;28;20181;-86
2022/03/25 01:36:46;;;;;;;9.83;7.10;;;7.80;59.30;;;;;;5117180;28;20179;-86
2022/03/25 01:39:13;;;;;;;8.37;7.37;;;7.90;59.40;;;;;;5117239;28;20637;-87
2022/03/25 01:41:39;;;;;;;9.80;7.70;;;7.80;59.40;;;;;;5097525;28;20657;-87
2022/03/25 01:44:08;;;;;;;7.83;7.03;;;7.90;59.50;;;;;;5115352;28;20174;-87
2022/03/25 01:46:34;;;;;;;8.97;7.30;;;7.80;59.30;;;;;;5115455;28;20202;-88
2022/03/25 01:49:00;;;;;;;7.67;6.83;;;7.90;59.30;;;;;;5116011;28;20172;-87
2022/03/25 01:51:36;;;;;;;12.50;7.47;;;7.90;60.10;;;;;;5116638;28;20688;-86
2022/03/25 01:54:19;;;;;;;9.57;7.60;;;7.90;59.60;;;;;;5098049;28;20271;-87
2022/03/25 01:56:54;;;;;;;10.00;7.40;;;7.80;59.70;;;;;;5116094;28;20231;-88
2022/03/25 01:59:21;;;;;;;8.53;7.10;;;7.80;59.60;;;;;;5116250;28;20249;-87
2022/03/25 02:01:47;;;;;;;10.07;8.20;;;7.80;59.60;;;;;;5115229;28;20640;-88
2022/03/25 02:04:13;;;;;;;10.00;7.07;;;7.70;59.60;;;;;;5114611;28;20175;-84
2022/03/25 02:06:39;;;;;;;8.87;7.60;;;7.70;59.90;;;;;;5114831;28;20179;-88
2022/03/25 02:09:05;;;;;;;8.77;7.40;;;7.70;59.80;;;;;;5096760;28;20201;-85
2022/03/25 02:11:32;;;;;;;8.20;6.53;;;7.60;60.00;;;;;;5115330;28;20168;-88
2022/03/25 02:13:58;;;;;;;7.77;6.87;;;7.60;59.90;;;;;;5115299;28;20166;-86
2022/03/25 02:16:37;;;;;;;8.27;7.23;;;7.60;60.00;;;;;;5114749;28;20193;-88
2022/03/25 02:19:03;;;;;;;9.00;6.43;;;7.60;60.00;;;;;;5096922;28;20970;-88
2022/03/25 02:21:33;;;;;;;8.50;6.90;;;7.60;60.20;;;;;;5115010;28;20167;-87
2022/03/25 02:24:00;;;;;;;11.67;7.47;;;7.60;60.00;;;;;;5114979;28;20548;-86
2022/03/25 02:26:27;;;;;;;8.40;6.67;;;7.60;60.10;;;;;;5115000;28;20173;-84
2022/03/25 02:28:54;;;;;;;9.87;7.03;;;7.60;60.00;;;;;;5114535;28;20208;-84
2022/03/25 02:31:20;;;;;;;7.27;6.57;;;7.60;60.10;;;;;;5096753;28;20171;-83
2022/03/25 02:33:45;;;;;;;7.43;6.17;;;7.60;60.30;;;;;;5114581;28;20180;-85
2022/03/25 02:36:11;;;;;;;7.83;6.63;;;7.60;60.70;;;;;;5096441;28;20223;-85
2022/03/25 02:38:37;;;;;;;10.57;6.90;;;7.50;60.20;;;;;;5096205;28;20230;-84
2022/03/25 02:41:03;;;;;;;8.73;6.73;;;7.50;60.20;;;;;;5096262;28;20191;-83
2022/03/25 02:43:30;;;;;;;9.40;6.93;;;7.60;60.30;;;;;;5114399;28;20162;-84
2022/03/25 02:45:56;;;;;;;10.77;7.00;;;7.50;60.30;;;;;;5114506;28;20203;-84
2022/03/25 02:48:22;;;;;;;7.87;6.10;;;7.40;60.30;;;;;;5114486;28;20180;-84
2022/03/25 02:50:48;;;;;;;8.93;6.93;;;7.40;60.50;;;;;;5114156;28;20178;-82
2022/03/25 02:53:15;;;;;;;8.97;6.83;;;7.50;60.20;;;;;;5114497;28;20256;-83
2022/03/25 02:55:42;;;;;;;11.63;7.13;;;7.50;60.20;;;;;;5114302;28;20292;-83
2022/03/25 02:58:08;;;;;;;8.90;6.80;;;7.40;60.30;;;;;;5096345;28;20278;-84
2022/03/25 03:00:35;;;;;;;9.40;6.73;;;7.40;60.50;;;;;;5114991;28;20188;-84
2022/03/25 03:03:01;;;;;;;9.53;7.13;;;7.40;60.30;;;;;;5114361;28;20567;-83
2022/03/25 03:05:28;;;;;;;8.70;7.03;;;7.40;60.20;;;;;;5114553;28;20174;-84
2022/03/25 03:07:55;;;;;;;10.37;7.13;;;7.40;60.50;;;;;;5114146;28;20170;-85
2022/03/25 03:10:21;;;;;;;10.00;7.27;;;7.40;60.60;;;;;;5114352;28;20185;-85
2022/03/25 03:12:47;;;;;;;11.20;6.77;;;7.40;60.70;;;;;;5095915;28;20183;-84
2022/03/25 03:15:17;;;;;;;7.70;6.50;;;7.30;60.90;;;;;;5095982;28;20210;-86
2022/03/25 03:17:45;;;;;;;11.10;6.80;;;7.20;61.10;;;;;;5117132;28;20181;-87
2022/03/25 03:20:13;;;;;;;8.33;6.73;;;7.20;61.00;;;;;;5118675;28;20172;-87
2022/03/25 03:22:39;;;;;;;8.00;7.17;;;7.20;60.90;;;;;;5118831;28;20206;-88
2022/03/25 03:25:05;;;;;;;8.93;6.40;;;7.20;60.90;;;;;;5118778;28;20175;-86
2022/03/25 03:27:31;;;;;;;8.63;6.13;;;7.20;60.80;;;;;;5118682;28;20254;-85
2022/03/25 03:29:58;;;;;;;7.23;6.37;;;7.20;60.90;;;;;;5118901;28;20243;-86
2022/03/25 03:32:28;;;;;;;10.87;6.60;;;7.20;60.60;;;;;;5118983;28;20223;-84
2022/03/25 03:34:54;;;;;;;8.77;6.90;;;7.30;60.60;;;;;;5100908;28;20210;-84
2022/03/25 03:37:21;;;;;;;9.73;6.43;;;7.40;60.50;;;;;;5119030;28;20171;-86
2022/03/25 03:39:47;;;;;;;9.17;6.67;;;7.30;60.50;;;;;;5118336;28;20185;-87
2022/03/25 03:42:14;;;;;;;8.63;6.60;;;7.40;60.40;;;;;;5118474;28;20170;-87
2022/03/25 03:44:40;;;;;;;8.00;6.90;;;7.30;60.30;;;;;;5118658;28;20181;-87
2022/03/25 03:47:08;;;;;;;8.10;7.10;;;7.40;60.60;;;;;;5118792;28;20218;-86
2022/03/25 03:49:35;;;;;;;8.17;6.63;;;7.40;60.50;;;;;;5118809;28;20607;-88
2022/03/25 03:52:01;;;;;;;7.37;6.37;;;7.30;60.40;;;;;;5119720;28;20173;-84
2022/03/25 03:54:28;;;;;;;11.70;6.70;;;7.30;60.60;;;;;;5125465;28;20221;-87
2022/03/25 03:56:53;;;;;;;9.37;6.43;;;7.40;60.50;;;;;;5123703;28;20176;-86
2022/03/25 03:59:19;;;;;;;7.83;7.03;;;7.30;60.50;;;;;;5126326;28;20170;-87
2022/03/25 04:01:45;;;;;;;9.20;6.97;;;7.20;60.80;;;;;;5106767;28;20246;-88
2022/03/25 04:04:11;;;;;;;11.80;6.77;;;7.20;60.90;;;;;;5103800;28;20222;-89
2022/03/25 04:06:37;;;;;;;12.03;7.50;;;7.20;61.00;;;;;;5129195;28;20233;-87
2022/03/25 04:09:03;;;;;;;7.80;7.00;;;7.20;60.90;;;;;;5133977;28;20176;-88
2022/03/25 04:11:29;;;;;;;11.33;7.17;;;7.20;60.90;;;;;;5121903;28;20174;-88
2022/03/25 04:13:55;;;;;;;7.70;6.93;;;7.30;61.00;;;;;;5118320;28;20593;-88
2022/03/25 04:16:22;;;;;;;8.77;6.83;;;7.40;60.80;;;;;;5117909;28;20299;-88
2022/03/25 04:18:48;;;;;;;9.30;6.90;;;7.30;61.30;;;;;;5117686;28;20169;-89
2022/03/25 04:21:14;;;;;;;9.30;7.07;;;7.30;61.20;;;;;;5117125;28;20174;-86
2022/03/25 04:23:40;;;;;;;8.73;7.57;;;7.20;61.30;;;;;;5098812;28;20234;-85
2022/03/25 04:26:06;;;;;;;8.67;7.67;;;7.20;61.40;;;;;;5098817;28;20213;-86
2022/03/25 04:28:32;;;;;;;15.53;8.17;;;7.10;61.50;;;;;;5117346;28;20206;-85
2022/03/25 04:30:58;;;;;;;11.03;7.53;;;7.10;61.70;;;;;;5117043;28;20173;-85
2022/03/25 04:33:24;;;;;;;10.13;7.80;;;7.10;61.60;;;;;;5116937;28;20176;-84
2022/03/25 04:35:50;;;;;;;10.80;7.90;;;7.00;61.70;;;;;;5116988;28;20699;-85
2022/03/25 04:38:16;;;;;;;15.37;7.57;;;6.90;62.10;;;;;;5117041;28;20184;-86
2022/03/25 04:40:42;;;;;;;8.60;7.53;;;6.80;62.30;;;;;;5116818;28;20203;-86
2022/03/25 04:43:08;;;;;;;12.60;7.70;;;6.80;62.70;;;;;;5117531;28;20173;-86
2022/03/25 04:45:35;;;;;;;11.27;7.20;;;6.70;62.90;;;;;;5116730;28;20175;-85
2022/03/25 04:48:03;;;;;;;11.43;6.93;;;6.80;62.70;;;;;;5117089;28;20161;-84
2022/03/25 04:50:28;;;;;;;9.97;7.27;;;6.80;62.40;;;;;;5117259;28;20178;-87
2022/03/25 04:52:55;;;;;;;13.07;7.50;;;6.80;62.50;;;;;;5116704;28;20172;-85
2022/03/25 04:55:21;;;;;;;7.83;6.90;;;6.80;62.60;;;;;;5116345;28;20572;-86
2022/03/25 04:57:48;;;;;;;10.20;6.90;;;6.80;62.60;;;;;;5116709;28;20618;-88
2022/03/25 05:00:14;;;;;;;10.27;7.57;;;6.90;62.80;;;;;;5116498;28;20234;-88
2022/03/25 05:02:41;;;;;;;12.53;7.97;;;6.90;62.70;;;;;;5098297;28;20186;-85
2022/03/25 05:05:07;;;;;;;11.07;7.87;;;6.90;62.60;;;;;;5116129;28;20173;-86
2022/03/25 05:07:33;;;;;;;9.23;7.37;;;6.90;62.60;;;;;;5116128;28;20186;-85
2022/03/25 05:10:00;;;;;;;9.93;7.43;;;6.90;62.70;;;;;;5116255;28;20186;-85
2022/03/25 05:12:27;;;;;;;11.07;6.97;;;6.80;63.30;;;;;;5116102;28;20170;-84
2022/03/25 05:14:53;;;;;;;10.97;7.83;;;6.90;63.40;;;;;;5116151;28;20675;-87
2022/03/25 05:17:19;;;;;;;12.00;7.77;;;6.90;63.30;;;;;;5117317;28;20198;-85
2022/03/25 05:19:45;;;;;;;10.93;6.97;;;6.90;63.00;;;;;;5102428;28;20170;-86
2022/03/25 05:22:11;;;;;;;10.47;7.90;;;6.90;63.30;;;;;;5129322;28;20306;-83
2022/03/25 05:24:37;;;;;;;10.00;7.90;;;6.90;63.00;;;;;;5132024;28;20160;-84
2022/03/25 05:27:04;;;;;;;11.53;8.50;;;6.80;63.30;;;;;;5134209;28;20170;-84
2022/03/25 05:29:30;;;;;;;13.77;7.90;;;6.90;62.90;;;;;;5101076;28;20228;-85
2022/03/25 05:31:56;;;;;;;11.73;7.00;;;6.90;63.10;;;;;;5116542;28;20179;-87
2022/03/25 05:34:21;;;;;;;12.50;7.03;;;6.90;62.60;;;;;;5115919;28;20178;-88
2022/03/25 05:36:47;;;;;;;8.47;6.80;;;7.00;62.40;;;;;;5115664;28;20175;-85
2022/03/25 05:39:14;;;;;;;8.67;6.90;;;7.00;62.30;;;;;;5115695;28;20200;-87
2022/03/25 05:41:44;;;;;;;9.40;7.30;;;7.10;62.10;;;;;;5117416;28;20191;-86
2022/03/25 05:44:11;;;;;;;8.63;6.70;;;7.10;62.10;;;;;;5116433;28;20537;-87
2022/03/25 05:46:38;;;;;;;16.37;7.73;;;7.10;62.90;;;;;;5115486;28;20171;-84
2022/03/25 05:49:05;;;;;;;14.07;7.00;;;7.20;64.20;;;;;;5096879;28;20268;-83
2022/03/25 05:51:31;;;;;;;10.43;7.10;;;7.20;62.50;;;;;;5115386;28;20601;-84
2022/03/25 05:54:00;;;;;;;8.67;7.50;;;7.30;62.30;;;;;;5115304;28;20167;-84
2022/03/25 05:56:26;;;;;;;11.03;7.17;;;7.40;62.20;;;;;;5115091;28;20210;-84
2022/03/25 05:58:51;;;;;;;9.90;7.30;;;7.50;61.70;;;;;;5115713;28;20685;-88
2022/03/25 06:01:18;;;;;;;10.77;6.83;;;7.40;61.70;;;;;;5115098;28;20184;-85
2022/03/25 06:03:44;;;;;;;8.00;6.67;;;7.40;61.60;;;;;;5115178;28;20196;-86
2022/03/25 06:06:10;;;;;;;12.23;7.13;;;7.40;61.60;;;;;;5096915;28;20867;-86
2022/03/25 06:08:37;;;;;;;11.30;7.00;;;7.50;61.30;;;;;;5116801;28;20183;-87
2022/03/25 06:11:03;;;;;;;11.50;7.57;;;7.60;61.10;;;;;;5117986;28;20176;-86
2022/03/25 06:13:30;;;;;;;8.73;7.23;;;7.60;61.20;;;;;;5117897;28;20660;-84
2022/03/25 06:15:56;;;;;;;8.50;7.13;;;7.50;61.20;;;;;;5098515;28;20674;-84
2022/03/25 06:18:22;;;;;;;9.07;6.90;;;7.60;61.10;;;;;;5117527;28;20186;-85
2022/03/25 06:20:48;;;;;;;9.00;7.27;;;7.70;60.70;;;;;;5117998;28;20532;-85
2022/03/25 06:23:14;;;;;;;12.73;7.53;;;7.70;61.10;;;;;;5096508;28;20180;-85
2022/03/25 06:25:43;;;;;;;11.83;7.23;;;7.80;60.80;;;;;;5115726;28;20697;-84
2022/03/25 06:28:09;;;;;;;13.27;6.97;;;7.90;60.70;;;;;;5114440;28;20172;-84
2022/03/25 06:30:37;;;;;;;12.33;7.83;;;8.00;60.60;;;;;;5114303;28;20323;-85
2022/03/25 06:33:05;;;;;;;7.83;6.67;;;8.10;60.30;;;;;;5114214;28;20181;-86
2022/03/25 06:35:30;;;;;;;10.23;7.27;;;8.10;60.60;;;;;;5114373;28;20716;-85
2022/03/25 06:37:56;;;;;;;12.10;7.07;;;8.20;60.30;;;;;;5096052;28;20176;-86
2022/03/25 06:40:23;;;;;;;17.47;7.00;;;8.20;60.20;;;;;;5115027;28;20173;-87
2022/03/25 06:42:49;;;;;;;12.37;7.00;;;8.30;60.10;;;;;;5114564;28;20605;-85
2022/03/25 06:45:17;;;;;;;10.57;7.70;;;8.40;60.10;;;;;;5115182;28;20217;-83
2022/03/25 06:47:43;;;;;;;11.57;7.30;;;8.40;60.00;;;;;;5115016;28;20740;-84
2022/03/25 06:50:13;;;;;;;9.07;7.20;;;8.50;60.00;;;;;;5114205;28;20195;-85
2022/03/25 06:52:39;;;;;;;9.60;7.33;;;8.60;59.80;;;;;;5114852;28;20252;-85
2022/03/25 06:55:06;;;;;;;9.17;7.73;;;8.80;59.40;;;;;;5113851;28;20213;-87
2022/03/25 06:57:32;;;;;;;10.70;6.67;;;8.90;59.20;;;;;;5114632;28;20698;-88
2022/03/25 06:59:58;;;;;;;7.83;7.03;;;9.00;59.10;;;;;;5115714;28;20209;-85
2022/03/25 07:02:24;;;;;;;8.03;6.87;;;8.90;59.10;;;;;;5115805;28;20235;-86
2022/03/25 07:04:50;;;;;;;10.07;7.57;;;9.00;59.00;;;;;;5114908;28;20173;-85
2022/03/25 07:07:19;;;;;;;11.07;7.60;;;9.10;58.90;;;;;;5113517;28;20175;-90
2022/03/25 07:09:45;;;;;;;15.33;10.43;;;9.10;58.70;;;;;;5114414;28;20208;-85
2022/03/25 07:12:12;;;;;;;15.20;8.00;;;9.20;58.60;;;;;;5114594;28;20674;-84
2022/03/25 07:14:38;;;;;;;12.17;8.00;;;9.30;58.40;;;;;;5115097;28;20193;-85
2022/03/25 07:17:04;;;;;;;11.73;7.30;;;9.40;58.50;;;;;;5116098;28;20261;-86
2022/03/25 07:19:29;;;;;;;12.00;8.13;;;9.40;58.50;;;;;;5114480;28;20192;-87
2022/03/25 07:21:55;;;;;;;17.67;8.40;;;9.60;58.00;;;;;;5114038;28;20170;-87
2022/03/25 07:24:21;;;;;;;13.07;8.17;;;9.80;57.70;;;;;;5114557;28;20206;-86
2022/03/25 07:26:47;;;;;;;14.90;9.23;;;9.80;57.70;;;;;;5113263;28;20622;-86
2022/03/25 07:29:14;;;;;;;11.50;7.73;;;9.80;57.70;;;;;;5113460;28;20569;-85
2022/03/25 07:31:39;;;;;;;12.30;8.23;;;9.90;57.70;;;;;;5114922;28;20181;-85
2022/03/25 07:34:06;;;;;;;13.37;7.90;;;10.00;56.40;;;;;;5113617;28;20652;-86
2022/03/25 07:36:32;;;;;;;12.77;8.10;;;10.10;56.60;;;;;;5112945;28;20691;-86
2022/03/25 07:38:58;;;;;;;13.37;7.90;;;10.10;56.70;;;;;;5113101;28;20213;-86
2022/03/25 07:41:24;;;;;;;11.33;7.83;;;10.20;56.10;;;;;;5113283;28;20199;-86
2022/03/25 07:43:52;;;;;;;11.40;8.07;;;10.30;56.20;;;;;;5113174;28;20169;-85
2022/03/25 07:46:18;;;;;;;13.10;8.17;;;10.30;56.10;;;;;;5094792;28;20181;-87
2022/03/25 07:48:44;;;;;;;13.00;8.20;;;10.40;56.30;;;;;;5113451;28;20583;-87
2022/03/25 07:51:10;;;;;;;15.27;8.80;;;10.50;56.50;;;;;;5112960;28;20181;-86
2022/03/25 07:53:36;;;;;;;9.97;7.70;;;10.50;55.80;;;;;;5113258;28;20170;-85
2022/03/25 07:56:02;;;;;;;11.87;8.13;;;10.60;55.80;;;;;;5112453;28;20218;-84
2022/03/25 07:58:27;;;;;;;12.23;8.33;;;10.70;55.80;;;;;;5113680;28;20198;-86
2022/03/25 08:00:53;;;;;;;11.07;8.27;;;10.80;55.30;;;;;;5113340;28;20626;-86
2022/03/25 08:03:19;;;;;;;10.13;8.40;;;11.00;55.20;;;;;;5114522;28;20167;-86
2022/03/25 08:05:50;;;;;;;18.50;9.30;;;11.10;55.10;;;;;;5116915;28;20179;-85
2022/03/25 08:08:19;;;;;;;10.67;8.93;;;11.10;54.90;;;;;;5116213;28;20155;-85
2022/03/25 08:10:46;;;;;;;15.77;8.83;;;11.20;54.10;;;;;;5116454;28;20167;-86
2022/03/25 08:13:12;;;;;;;11.10;8.63;;;11.40;53.80;;;;;;5116839;28;20179;-85
2022/03/25 08:15:38;;;;;;;19.17;9.27;;;11.40;54.40;;;;;;5098504;28;20209;-85
2022/03/25 08:18:05;;;;;;;13.20;8.80;;;11.40;54.50;;;;;;5116212;28;20262;-86
2022/03/25 08:20:35;;;;;;;13.70;9.40;;;11.40;54.60;;;;;;5099386;28;20178;-87
2022/03/25 08:23:02;;;;;;;16.10;9.50;;;11.50;54.90;;;;;;5120090;28;20169;-87
2022/03/25 08:28:14;;;;;;;17.60;10.17;;;11.70;53.80;;;;;;5120470;28;20190;-86
2022/03/25 08:30:41;;;;;;;19.47;11.17;;;12.00;55.90;;;;;;5099172;28;20702;-84
2022/03/25 08:33:07;;;;;;;18.80;10.77;;;12.10;52.80;;;;;;5117997;28;20168;-83
2022/03/25 08:35:33;;;;;;;16.43;12.10;;;12.10;52.50;;;;;;5117783;28;20200;-83
2022/03/25 08:38:00;;;;;;;19.43;11.97;;;12.10;52.50;;;;;;5117453;28;20245;-85
2022/03/25 08:40:28;;;;;;;15.70;12.50;;;12.20;51.90;;;;;;5119036;28;20174;-84
2022/03/25 08:42:54;;;;;;;19.70;12.93;;;12.20;52.40;;;;;;5120856;28;20172;-84
2022/03/25 08:45:21;;;;;;;27.50;14.70;;;12.20;51.40;;;;;;5119729;28;20182;-86
2022/03/25 08:47:48;;;;;;;23.03;14.70;;;12.30;50.40;;;;;;5117983;28;20316;-84
2022/03/25 08:50:16;;;;;;;21.37;15.90;;;12.40;50.40;;;;;;5116483;28;20301;-86
2022/03/25 08:52:46;;;;;;;25.80;15.97;;;12.50;50.10;;;;;;5116721;28;20248;-85
2022/03/25 08:55:12;;;;;;;24.27;15.37;;;12.60;50.30;;;;;;5117048;28;20200;-84
2022/03/25 08:57:39;;;;;;;22.30;15.13;;;12.70;50.10;;;;;;5097886;28;20169;-84
2022/03/25 09:00:11;;;;;;;21.13;15.47;;;12.80;50.10;;;;;;5116837;28;20192;-84
2022/03/25 09:02:38;;;;;;;23.50;16.47;;;12.90;50.20;;;;;;5117001;28;20170;-84
2022/03/25 09:05:05;;;;;;;24.10;15.70;;;13.00;50.40;;;;;;5099289;28;20683;-85
2022/03/25 09:07:31;;;;;;;25.53;15.07;;;13.00;50.10;;;;;;5115842;28;20180;-86
2022/03/25 09:09:57;;;;;;;22.30;15.67;;;13.10;50.60;;;;;;5116068;28;20172;-85
2022/03/25 09:12:23;;;;;;;23.63;16.33;;;13.20;50.80;;;;;;5116476;28;20207;-85
2022/03/25 09:14:49;;;;;;;23.37;16.70;;;13.20;50.00;;;;;;5099672;28;20210;-86
2022/03/25 09:17:16;;;;;;;21.83;17.27;;;13.20;49.40;;;;;;5116803;28;20244;-84
2022/03/25 09:19:42;;;;;;;28.77;17.87;;;13.30;49.20;;;;;;5116105;28;20174;-83
2022/03/25 09:22:08;;;;;;;22.30;17.80;;;13.30;49.60;;;;;;5115757;28;20170;-85
2022/03/25 09:24:34;;;;;;;25.30;17.40;;;13.30;48.50;;;;;;5116022;28;20192;-84
2022/03/25 09:26:59;;;;;;;29.37;17.93;;;13.50;49.50;;;;;;5115611;28;20166;-83
2022/03/25 09:29:25;;;;;;;32.00;18.40;;;13.70;49.50;;;;;;5115189;28;20229;-84
2022/03/25 09:31:52;;;;;;;24.03;18.40;;;13.70;48.40;;;;;;5115670;28;20201;-85
2022/03/25 09:37:01;;;;;;;30.13;19.93;;;13.80;47.30;;;;;;5115667;28;20748;-83
2022/03/25 09:39:28;;;;;;;25.90;18.50;;;13.80;46.90;;;;;;5115721;28;20203;-84
2022/03/25 09:42:09;;;;;;;24.27;18.93;;;13.80;47.00;;;;;;5091141;27;21120;-83
2022/03/25 09:44:39;;;;;;;26.97;20.17;;;13.90;46.90;;;;;;5090920;28;20170;-84
2022/03/25 09:47:05;;;;;;;30.73;18.67;;;13.90;47.30;;;;;;5090191;28;20201;-84
2022/03/25 09:49:31;;;;;;;29.00;19.73;;;13.90;47.30;;;;;;5089067;28;20180;-84
2022/03/25 09:51:58;;;;;;;25.20;18.97;;;13.90;48.20;;;;;;5090734;28;20179;-84
2022/03/25 09:54:24;;;;;;;26.90;18.13;;;14.00;47.30;;;;;;5091050;28;20211;-85
2022/03/25 09:56:50;;;;;;;29.10;19.57;;;14.10;47.80;;;;;;5090582;28;20178;-85
2022/03/25 09:59:20;;;;;;;23.93;18.03;;;14.20;46.60;;;;;;5090094;28;20171;-85
2022/03/25 10:01:46;;;;;;;30.83;19.13;;;14.20;46.90;;;;;;5090397;28;20234;-84
2022/03/25 10:04:35;;;;;;;26.63;18.27;;;14.30;46.00;;;;;;5089384;28;20171;-86
2022/03/25 10:07:00;;;;;;;24.27;17.50;;;14.40;45.70;;;;;;5089756;28;20667;-84
2022/03/25 10:09:26;;;;;;;23.63;18.40;;;14.40;45.50;;;;;;5090259;28;20171;-85
2022/03/25 10:11:53;;;;;;;22.37;17.33;;;14.40;46.00;;;;;;5090345;28;20181;-85
2022/03/25 10:14:23;;;;;;;21.83;17.13;;;14.40;46.00;;;;;;5090748;28;20170;-86
2022/03/25 10:16:53;;;;;;;23.27;18.70;;;14.50;45.30;;;;;;5090379;28;20172;-86
2022/03/25 10:19:21;;;;;;;20.93;17.40;;;14.60;45.10;;;;;;5090232;28;20255;-85
2022/03/25 10:22:01;;;;;;;24.03;17.53;;;14.60;44.40;;;;;;5089790;28;20235;-85
2022/03/25 10:24:53;;;;;;;21.30;16.40;;;14.50;44.30;;;;;;5089783;28;20177;-83
2022/03/25 10:27:29;;;;;;;23.13;16.70;;;14.60;44.80;;;;;;5086373;28;20639;-83
2022/03/25 10:29:55;;;;;;;22.00;17.63;;;14.70;45.40;;;;;;5090477;28;20928;-85
2022/03/25 10:32:30;;;;;;;23.70;17.47;;;14.90;44.60;;;;;;5090234;28;20166;-83
2022/03/25 10:35:04;;;;;;;20.10;15.97;;;14.90;44.10;;;;;;5090200;28;20250;-84
2022/03/25 10:37:30;;;;;;;24.73;16.90;;;14.80;43.60;;;;;;5090108;28;20233;-84
2022/03/25 10:39:56;;;;;;;20.57;15.87;;;14.90;44.30;;;;;;5089595;28;20179;-83
2022/03/25 10:42:22;;;;;;;26.77;16.00;;;14.90;44.50;;;;;;5090184;28;20521;-83
2022/03/25 10:44:48;;;;;;;22.63;17.67;;;15.00;44.50;;;;;;5089986;28;20527;-85
2022/03/25 10:47:16;;;;;;;21.93;17.63;;;15.10;43.70;;;;;;5089722;28;20631;-85
2022/03/25 10:49:47;;;;;;;23.10;16.90;;;15.10;43.50;;;;;;5089985;28;20179;-83
2022/03/25 10:52:34;;;;;;;21.80;16.80;;;15.10;43.90;;;;;;5084315;28;20259;-84
2022/03/25 10:55:23;;;;;;;18.67;16.63;;;15.20;44.70;;;;;;5084158;28;20526;-83
2022/03/25 10:57:58;;;;;;;25.77;17.20;;;15.30;44.50;;;;;;5077665;28;20258;-86
2022/03/25 11:00:25;;;;;;;22.37;17.20;;;15.30;44.40;;;;;;5075046;28;20684;-84
2022/03/25 11:02:52;;;;;;;25.50;16.37;;;15.40;44.20;;;;;;5076459;28;20620;-85
2022/03/25 11:05:18;;;;;;;19.33;16.03;;;15.40;44.00;;;;;;5076026;28;20173;-86
2022/03/25 11:07:47;;;;;;;22.47;17.23;;;15.40;44.00;;;;;;5076099;28;20178;-87
2022/03/25 11:10:17;;;;;;;20.17;16.20;;;15.50;44.20;;;;;;5075657;28;20475;-84
2022/03/25 11:12:48;;;;;;;21.30;16.07;;;15.60;44.30;;;;;;5076243;28;20180;-86
2022/03/25 11:15:16;;;;;;;24.37;17.53;;;15.60;43.40;;;;;;5081963;28;20188;-85
2022/03/25 11:17:43;;;;;;;20.67;17.13;;;15.60;43.30;;;;;;5077925;28;20630;-85
2022/03/25 11:20:11;;;;;;;19.47;17.33;;;15.60;44.40;;;;;;5076054;28;20237;-84
2022/03/25 11:22:48;;;;;;;20.97;17.57;;;15.70;43.60;;;;;;5074068;28;20262;-84
2022/03/25 11:25:17;;;;;;;24.63;16.90;;;15.70;44.20;;;;;;5075706;28;20622;-86
2022/03/25 11:27:51;;;;;;;21.57;17.33;;;15.80;44.30;;;;;;5076461;28;20530;-86
2022/03/25 11:30:17;;;;;;;22.53;17.63;;;15.80;44.40;;;;;;5077904;28;20625;-86
2022/03/25 11:33:00;;;;;;;21.87;17.47;;;15.90;43.60;;;;;;5075468;28;20168;-86
2022/03/25 11:35:26;;;;;;;23.73;17.87;;;15.90;44.30;;;;;;5075311;28;20238;-85
2022/03/25 11:38:10;;;;;;;25.50;19.27;;;16.00;44.10;;;;;;5075185;28;20202;-86
2022/03/25 11:40:42;;;;;;;21.90;18.10;;;16.00;43.40;;;;;;5075212;28;20214;-85
2022/03/25 11:43:21;;;;;;;20.93;17.57;;;16.00;43.20;;;;;;5075451;28;20256;-87
2022/03/25 11:45:59;;;;;;;21.90;17.47;;;16.10;43.40;;;;;;5075363;28;20161;-85
2022/03/25 11:48:25;;;;;;;22.37;18.23;;;16.10;44.10;;;;;;5075061;28;20176;-84
2022/03/25 11:50:55;;;;;;;22.67;18.50;;;16.20;44.40;;;;;;5075029;28;20284;-86
2022/03/25 11:53:22;;;;;;;27.67;19.07;;;16.20;44.00;;;;;;5074916;28;20649;-85
2022/03/25 11:56:09;;;;;;;24.23;18.27;;;16.30;44.10;;;;;;5073927;28;20649;-85
2022/03/25 11:58:55;;;;;;;20.67;18.50;;;16.30;43.40;;;;;;5075220;28;20168;-85
2022/03/25 12:01:22;;;;;;;23.17;17.80;;;16.30;42.60;;;;;;5073608;28;20806;-86
2022/03/25 12:03:53;;;;;;;22.17;17.27;;;16.40;42.60;;;;;;5073520;28;20189;-87
2022/03/25 12:06:30;;;;;;;24.20;18.97;;;16.40;42.60;;;;;;5075213;28;20196;-87
2022/03/25 12:09:32;;;;;;;25.27;19.10;;;16.40;43.60;;;;;;5074919;28;20163;-86
2022/03/25 12:11:59;;;;;;;24.97;18.40;;;16.40;43.80;;;;;;5070720;28;20175;-85
2022/03/25 12:14:36;;;;;;;27.27;18.27;;;16.50;43.20;;;;;;5074613;28;20198;-84
2022/03/25 12:17:02;;;;;;;22.03;17.67;;;16.50;42.80;;;;;;5074610;28;20203;-87
2022/03/25 12:19:31;;;;;;;23.00;18.43;;;16.50;42.40;;;;;;5074591;28;20175;-86
2022/03/25 12:22:01;;;;;;;20.50;17.80;;;16.50;42.80;;;;;;5074771;28;20624;-86
2022/03/25 12:24:30;;;;;;;21.97;17.20;;;16.60;43.20;;;;;;5074254;28;20182;-85
2022/03/25 12:27:02;;;;;;;19.87;17.10;;;16.60;42.00;;;;;;5073190;28;20190;-86
2022/03/25 12:29:51;;;;;;;25.00;17.93;;;16.60;41.80;;;;;;5074687;28;20174;-85
2022/03/25 12:32:19;;;;;;;22.53;17.77;;;16.70;42.30;;;;;;5075185;28;20163;-86
2022/03/25 12:35:03;;;;;;;20.63;17.77;;;16.80;42.70;;;;;;5074502;28;20175;-85
2022/03/25 12:37:34;;;;;;;21.43;18.07;;;16.90;43.20;;;;;;5076300;28;20217;-85
2022/03/25 12:40:25;;;;;;;23.17;18.50;;;16.90;43.50;;;;;;5074621;28;20244;-84
2022/03/25 12:42:52;;;;;;;24.23;17.80;;;16.80;42.10;;;;;;5074142;28;20159;-85
2022/03/25 12:45:25;;;;;;;20.43;16.90;;;16.90;42.20;;;;;;5074116;28;20178;-85
2022/03/25 12:47:51;;;;;;;19.70;17.27;;;17.00;42.60;;;;;;5074003;28;20649;-84
2022/03/25 12:50:17;;;;;;;20.43;17.13;;;17.00;42.70;;;;;;5073747;28;20242;-85
2022/03/25 12:52:44;;;;;;;22.80;16.00;;;17.00;43.00;;;;;;5073915;28;20254;-84